Terminal Aerodrome Forecast
Issued by NWS Cleveland, OH

Home | Current Version | Previous Version | Text Only | Print | Product List | Glossary Off
Versions: 1 2 3 4 5 6 7 8 9 10 11 12 13 14 15 16 17 18 19 20

000
FTUS41 KCLE 020500
TAFTOL
TAF
KTOL 020527Z 0206/0306 26009KT 6SM BR OVC018
      TEMPO 0206/0210 5SM BR BKN020
     FM021000 27008KT 6SM BR BKN025
      TEMPO 0212/0214 SCT025
     FM021400 28008KT P6SM SCT035
     FM022200 26003KT P6SM BKN250=

USA.gov is the U.S. government's official web portal to all federal, state and local government web resources and services.